createdAt,value
2023-03-20T00:00:48.648Z,5.47
2023-03-20T00:03:18.026Z,6.23
2023-03-20T00:05:46.237Z,3.47
2023-03-20T00:08:14.192Z,12.20
2023-03-20T00:10:44.825Z,5.23
2023-03-20T00:13:26.004Z,9.53
2023-03-20T00:15:54.675Z,3.30
2023-03-20T00:18:26.555Z,3.53
2023-03-20T00:20:54.587Z,6.27
2023-03-20T00:23:22.676Z,3.10
2023-03-20T00:25:51.250Z,2.73
2023-03-20T00:28:40.679Z,6.60
2023-03-20T00:31:22.215Z,6.33
2023-03-20T00:33:51.856Z,6.10
2023-03-20T00:36:19.843Z,5.97
2023-03-20T00:38:47.888Z,3.37
2023-03-20T00:41:25.336Z,2.70
2023-03-20T00:43:56.948Z,2.77
2023-03-20T00:46:25.510Z,6.60
2023-03-20T00:48:55.921Z,3.83
2023-03-20T00:51:23.958Z,2.97
2023-03-20T00:53:52.017Z,3.83
2023-03-20T00:56:32.752Z,3.00
2023-03-20T00:59:02.394Z,3.20
2023-03-20T01:01:32.010Z,2.47
2023-03-20T01:04:01.930Z,2.33
2023-03-20T01:06:31.320Z,2.40
2023-03-20T01:09:00.032Z,6.30
2023-03-20T01:11:28.683Z,3.73
2023-03-20T01:13:57.217Z,2.60
2023-03-20T01:16:27.136Z,6.27
2023-03-20T01:18:56.679Z,4.30
2023-03-20T01:21:26.398Z,2.77
2023-03-20T01:23:54.359Z,3.83
2023-03-20T01:26:28.556Z,2.73
2023-03-20T01:28:56.739Z,3.27
2023-03-20T01:31:24.748Z,4.17
2023-03-20T01:33:52.694Z,9.60
2023-03-20T01:36:25.133Z,4.00
2023-03-20T01:38:58.405Z,2.80
2023-03-20T01:41:27.728Z,26.97
2023-03-20T01:43:55.894Z,2.83
2023-03-20T01:46:28.371Z,4.10
2023-03-20T01:49:08.517Z,3.83
2023-03-20T01:51:37.850Z,3.27
2023-03-20T01:54:12.075Z,15.70
2023-03-20T01:56:46.308Z,6.90
2023-03-20T01:59:18.706Z,3.80
2023-03-20T02:01:47.603Z,1.90
2023-03-20T02:04:16.931Z,5.77
2023-03-20T02:06:46.776Z,5.40
2023-03-20T02:09:14.758Z,5.07
2023-03-20T02:11:44.856Z,2.43
2023-03-20T02:14:14.888Z,3.53
2023-03-20T02:16:43.004Z,3.10
2023-03-20T02:19:24.703Z,4.30
2023-03-20T02:22:46.129Z,3.43
2023-03-20T02:25:53.574Z,7.30
2023-03-20T02:29:35.661Z,9.73
2023-03-20T02:32:50.659Z,6.80
2023-03-20T02:36:07.602Z,2.73
2023-03-20T02:39:03.359Z,3.73
2023-03-20T02:41:37.995Z,3.57
2023-03-20T02:44:12.024Z,2.70
2023-03-20T02:46:48.097Z,4.97
2023-03-20T02:49:26.754Z,9.83
2023-03-20T02:52:05.142Z,6.13
2023-03-20T02:54:42.456Z,4.93
2023-03-20T02:57:20.536Z,7.93
2023-03-20T02:59:57.834Z,3.93
2023-03-20T03:02:35.596Z,3.27
2023-03-20T03:05:08.283Z,7.80
2023-03-20T03:07:38.075Z,3.97
2023-03-20T03:10:12.897Z,6.10
2023-03-20T03:12:45.939Z,6.47
2023-03-20T03:15:19.247Z,5.53
2023-03-20T03:17:50.520Z,9.03
2023-03-20T03:20:25.149Z,11.63
2023-03-20T03:22:53.274Z,7.37
2023-03-20T03:25:28.549Z,8.00
2023-03-20T03:28:04.466Z,10.00
2023-03-20T03:30:36.889Z,16.70
2023-03-20T03:33:21.066Z,19.63
2023-03-20T03:35:50.881Z,25.13
2023-03-20T03:38:30.475Z,14.10
2023-03-20T03:41:19.098Z,15.40
2023-03-20T03:43:57.717Z,36.53
2023-03-20T03:46:34.110Z,38.37
2023-03-20T03:49:04.929Z,41.53
2023-03-20T03:51:36.205Z,52.47
2023-03-20T03:54:10.187Z,50.03
2023-03-20T03:56:42.342Z,57.63
2023-03-20T03:59:14.982Z,46.97
2023-03-20T04:01:44.858Z,45.70
2023-03-20T04:04:17.166Z,46.43
2023-03-20T04:06:45.233Z,44.87
2023-03-20T04:09:13.210Z,48.13
2023-03-20T04:11:42.542Z,51.00
2023-03-20T04:14:11.542Z,52.90
2023-03-20T04:16:39.579Z,48.27
2023-03-20T04:19:07.619Z,47.80
2023-03-20T04:21:35.646Z,49.10
2023-03-20T04:24:03.754Z,48.00
2023-03-20T04:26:31.911Z,52.67
2023-03-20T04:29:01.654Z,48.27
2023-03-20T04:31:29.701Z,42.27
2023-03-20T04:33:57.774Z,32.83
2023-03-20T04:36:25.751Z,44.37
2023-03-20T04:38:56.338Z,42.10
2023-03-20T04:41:25.483Z,41.87
2023-03-20T04:43:53.463Z,34.90
2023-03-20T04:46:23.042Z,35.73
2023-03-20T04:48:51.099Z,34.53
2023-03-20T04:51:19.080Z,37.00
2023-03-20T04:53:47.845Z,38.47
2023-03-20T04:56:15.890Z,32.77
2023-03-20T04:58:43.891Z,35.90
2023-03-20T05:01:11.928Z,40.27
2023-03-20T05:03:41.410Z,34.70
2023-03-20T05:06:10.489Z,38.27
2023-03-20T05:08:38.478Z,37.57
2023-03-20T05:11:07.740Z,29.60
2023-03-20T05:13:35.749Z,32.43
2023-03-20T05:16:03.785Z,33.00
2023-03-20T05:18:31.895Z,41.67
2023-03-20T05:21:01.303Z,38.40
2023-03-20T05:23:29.356Z,30.40
2023-03-20T05:25:57.427Z,25.13
2023-03-20T05:28:25.573Z,26.93
2023-03-20T05:30:53.608Z,31.47
2023-03-20T05:33:21.812Z,33.33
2023-03-20T05:35:49.998Z,40.90
2023-03-20T05:38:22.563Z,25.50
2023-03-20T05:40:51.170Z,28.40
2023-03-20T05:43:19.156Z,27.97
2023-03-20T05:45:47.197Z,30.20
2023-03-20T05:48:15.456Z,30.77
2023-03-20T05:50:43.970Z,28.00
2023-03-20T05:53:12.041Z,24.20
2023-03-20T05:55:42.017Z,26.53
2023-03-20T05:58:10.062Z,27.63
2023-03-20T06:00:38.068Z,25.73
2023-03-20T06:03:07.757Z,33.63
2023-03-20T06:05:36.603Z,36.80
2023-03-20T06:08:06.003Z,39.10
2023-03-20T06:10:33.981Z,41.73
2023-03-20T06:13:03.703Z,46.27
2023-03-20T06:15:32.291Z,36.53
2023-03-20T06:18:00.378Z,46.53
2023-03-20T06:20:28.496Z,40.07
2023-03-20T06:22:56.509Z,37.70
2023-03-20T06:25:24.502Z,40.57
2023-03-20T06:27:52.539Z,36.60
2023-03-20T06:30:22.093Z,56.53
2023-03-20T06:32:51.002Z,40.50
2023-03-20T06:35:19.534Z,46.07
2023-03-20T06:37:47.749Z,43.37
2023-03-20T06:40:15.826Z,44.63
2023-03-20T06:42:43.821Z,53.23
2023-03-20T06:45:13.205Z,54.80
2023-03-20T06:47:42.724Z,57.10
2023-03-20T06:50:12.807Z,57.93
2023-03-20T06:52:40.934Z,52.13
2023-03-20T06:55:09.885Z,46.80
2023-03-20T06:57:38.073Z,47.87
2023-03-20T07:00:08.086Z,70.10
2023-03-20T07:02:36.179Z,44.53
2023-03-20T07:05:06.930Z,60.30
2023-03-20T07:07:34.915Z,51.10
2023-03-20T07:10:04.439Z,59.73
2023-03-20T07:12:32.417Z,68.97
2023-03-20T07:15:00.488Z,69.27
2023-03-20T07:17:28.507Z,55.40
2023-03-20T07:19:56.698Z,49.90
2023-03-20T07:22:28.387Z,54.93
2023-03-20T07:24:56.996Z,48.30
2023-03-20T07:27:25.267Z,60.30
2023-03-20T07:29:53.330Z,51.00
2023-03-20T07:32:21.690Z,56.93
2023-03-20T07:34:50.262Z,54.07
2023-03-20T07:37:18.379Z,58.93
2023-03-20T07:39:47.768Z,49.73
2023-03-20T07:42:16.095Z,41.20
2023-03-20T07:44:44.115Z,49.97
2023-03-20T07:47:12.147Z,46.50
2023-03-20T07:49:41.408Z,42.53
2023-03-20T07:52:09.823Z,44.07
2023-03-20T07:54:37.847Z,47.50
2023-03-20T07:57:07.509Z,43.77
2023-03-20T07:59:35.597Z,36.80
2023-03-20T08:02:03.555Z,36.57
2023-03-20T08:04:31.537Z,34.40
2023-03-20T08:06:59.792Z,38.37
2023-03-20T08:09:28.026Z,39.90
2023-03-20T08:11:56.069Z,37.67
2023-03-20T08:14:25.744Z,38.27
2023-03-20T08:17:10.177Z,39.67
2023-03-20T08:19:41.509Z,41.03
2023-03-20T08:22:09.481Z,44.37
2023-03-20T08:24:37.467Z,43.17
2023-03-20T08:27:06.023Z,53.40
2023-03-20T08:29:35.723Z,49.53
2023-03-20T08:32:03.740Z,46.30
2023-03-20T08:34:33.492Z,38.47
2023-03-20T08:37:03.836Z,39.10
2023-03-20T08:39:33.121Z,42.63
2023-03-20T08:42:01.413Z,42.23
2023-03-20T08:44:29.802Z,42.17
2023-03-20T08:46:59.616Z,45.93
2023-03-20T08:49:27.981Z,41.63
2023-03-20T08:51:56.046Z,47.20
2023-03-20T08:54:24.271Z,41.00
2023-03-20T08:56:52.294Z,32.73
2023-03-20T08:59:21.099Z,43.90
2023-03-20T09:01:50.517Z,39.20
2023-03-20T09:04:20.174Z,38.63
2023-03-20T09:06:48.223Z,44.37
2023-03-20T09:09:18.558Z,36.83
2023-03-20T09:11:46.857Z,32.87
2023-03-20T09:14:14.978Z,33.03
2023-03-20T09:16:43.126Z,40.53
2023-03-20T09:19:13.788Z,27.90
2023-03-20T09:21:43.165Z,29.83
2023-03-20T09:24:11.500Z,29.63
2023-03-20T09:26:40.477Z,21.17
2023-03-20T09:29:08.499Z,29.73
2023-03-20T09:31:36.525Z,16.30
2023-03-20T09:34:04.701Z,22.30
2023-03-20T09:36:32.739Z,11.13
2023-03-20T09:39:02.236Z,7.03
2023-03-20T09:41:45.824Z,8.97
2023-03-20T09:44:35.443Z,10.27
2023-03-20T09:47:20.303Z,9.20
2023-03-20T09:50:01.064Z,11.57
2023-03-20T09:52:33.719Z,11.93
2023-03-20T09:55:11.384Z,10.53
2023-03-20T09:57:42.983Z,11.00
2023-03-20T10:00:17.516Z,10.00
2023-03-20T10:02:51.880Z,15.30
2023-03-20T10:05:25.702Z,11.70
2023-03-20T10:07:57.356Z,10.80
2023-03-20T10:10:37.098Z,15.23
2023-03-20T10:13:36.998Z,11.87
2023-03-20T10:16:16.724Z,18.63
2023-03-20T10:18:51.427Z,13.83
2023-03-20T10:21:27.235Z,15.00
2023-03-20T10:24:03.325Z,19.33
2023-03-20T10:26:36.817Z,13.07
2023-03-20T10:29:15.716Z,13.53
2023-03-20T10:31:52.004Z,14.23
2023-03-20T10:34:39.765Z,22.00
2023-03-20T10:37:24.603Z,11.13
2023-03-20T10:40:04.177Z,9.70
2023-03-20T10:42:38.898Z,11.80
2023-03-20T10:45:19.635Z,17.67
2023-03-20T10:47:52.648Z,12.80
2023-03-20T10:50:25.165Z,12.90
2023-03-20T10:52:55.448Z,11.50
2023-03-20T10:55:29.472Z,12.57
2023-03-20T10:58:04.854Z,11.30
2023-03-20T11:00:34.049Z,6.50
2023-03-20T11:03:02.256Z,8.27
2023-03-20T11:05:34.132Z,5.80
2023-03-20T11:08:05.792Z,4.73
2023-03-20T11:10:36.602Z,5.00
2023-03-20T11:13:19.365Z,4.57
2023-03-20T11:15:47.451Z,5.70
2023-03-20T11:18:17.102Z,4.87
2023-03-20T11:20:50.116Z,6.53
2023-03-20T11:23:21.406Z,2.80
2023-03-20T11:25:54.634Z,2.83
2023-03-20T11:28:32.609Z,3.40
2023-03-20T11:31:05.643Z,1.87
2023-03-20T11:33:38.719Z,9.47
2023-03-20T11:36:22.397Z,1.40
2023-03-20T11:38:52.056Z,2.67
2023-03-20T11:41:25.633Z,1.90
2023-03-20T11:43:55.694Z,1.20
2023-03-20T11:46:25.788Z,1.97
2023-03-20T11:49:07.688Z,1.40
2023-03-20T11:51:38.104Z,1.00
2023-03-20T11:54:08.918Z,2.87
2023-03-20T11:56:37.918Z,1.83
2023-03-20T11:59:15.441Z,2.33
2023-03-20T12:01:47.221Z,2.30
2023-03-20T12:04:18.989Z,7.43
2023-03-20T12:06:54.060Z,1.23
2023-03-20T12:09:39.141Z,4.80
2023-03-20T12:12:16.641Z,1.27
2023-03-20T12:14:55.604Z,2.30
2023-03-20T12:17:39.344Z,1.70
2023-03-20T12:20:22.419Z,2.40
2023-03-20T12:22:57.920Z,1.70
2023-03-20T12:25:28.482Z,1.37
2023-03-20T12:28:04.475Z,1.60
2023-03-20T12:30:50.445Z,1.93
2023-03-20T12:33:29.717Z,6.60
2023-03-20T12:35:59.512Z,1.63
2023-03-20T12:38:31.032Z,2.40
2023-03-20T12:41:11.485Z,2.20
2023-03-20T12:44:15.037Z,2.17
2023-03-20T12:46:49.447Z,2.70
2023-03-20T12:49:39.320Z,13.50
2023-03-20T12:52:17.160Z,2.10
2023-03-20T12:55:25.974Z,1.67
2023-03-20T12:58:07.483Z,1.70
2023-03-20T13:00:40.373Z,2.30
2023-03-20T13:03:29.351Z,2.10
2023-03-20T13:06:04.333Z,8.53
2023-03-20T13:08:48.549Z,5.80
2023-03-20T13:11:26.060Z,2.43
2023-03-20T13:13:58.052Z,5.90
2023-03-20T13:16:41.133Z,8.77
2023-03-20T13:19:23.415Z,2.30
2023-03-20T13:21:59.673Z,9.20
2023-03-20T13:24:44.907Z,3.17
2023-03-20T13:27:28.200Z,2.10
2023-03-20T13:30:03.099Z,3.60
2023-03-20T13:32:48.147Z,3.40
2023-03-20T13:35:29.669Z,5.20
2023-03-20T13:38:00.494Z,4.67
2023-03-20T13:40:31.357Z,6.33
2023-03-20T13:43:22.379Z,2.80
2023-03-20T13:45:53.254Z,9.80
2023-03-20T13:48:30.852Z,3.00
2023-03-20T13:51:13.010Z,3.50
2023-03-20T13:53:54.694Z,8.37
2023-03-20T13:56:34.427Z,10.93
2023-03-20T13:59:35.709Z,5.63
2023-03-20T14:02:20.875Z,5.57
2023-03-20T14:04:52.839Z,5.07
2023-03-20T14:07:35.418Z,4.37
2023-03-20T14:10:40.389Z,3.60
2023-03-20T14:13:15.847Z,3.20
2023-03-20T14:15:54.274Z,3.50
2023-03-20T14:18:26.347Z,2.33
2023-03-20T14:21:00.702Z,2.00
2023-03-20T14:23:44.300Z,4.80
2023-03-20T14:26:21.781Z,6.43
2023-03-20T14:29:01.082Z,1.67
2023-03-20T14:31:34.105Z,2.03
2023-03-20T14:34:16.705Z,8.70
2023-03-20T14:36:59.470Z,7.63
2023-03-20T14:39:49.590Z,1.83
2023-03-20T14:42:38.426Z,2.57
2023-03-20T14:45:38.928Z,3.43
2023-03-20T14:48:18.226Z,1.70
2023-03-20T14:51:05.400Z,1.43
2023-03-20T14:53:34.094Z,1.97
2023-03-20T14:56:13.062Z,1.37
2023-03-20T14:58:53.360Z,1.60
2023-03-20T15:01:48.208Z,1.77
2023-03-20T15:04:35.122Z,3.33
2023-03-20T15:07:08.157Z,2.10
2023-03-20T15:09:40.974Z,3.13
2023-03-20T15:12:13.473Z,6.50
2023-03-20T15:14:45.603Z,1.67
2023-03-20T15:17:21.174Z,3.53
2023-03-20T15:19:49.865Z,1.73
2023-03-20T15:22:21.706Z,4.43
2023-03-20T15:24:55.803Z,1.63
2023-03-20T15:27:30.200Z,2.23
2023-03-20T15:30:01.483Z,2.43
2023-03-20T15:32:30.012Z,3.30
2023-03-20T15:34:58.107Z,2.77
2023-03-20T15:37:28.166Z,2.70
2023-03-20T15:39:59.074Z,1.63
2023-03-20T15:42:28.833Z,4.10
2023-03-20T15:44:57.770Z,4.00
2023-03-20T15:47:26.758Z,3.90
2023-03-20T15:49:57.371Z,8.10
2023-03-20T15:52:33.117Z,8.70
2023-03-20T15:55:06.085Z,8.73
2023-03-20T15:57:38.133Z,19.77
2023-03-20T16:00:11.178Z,13.43
2023-03-20T16:02:39.613Z,13.47
2023-03-20T16:05:15.158Z,4.30
2023-03-20T16:07:43.586Z,2.43
2023-03-20T16:10:19.552Z,3.97
2023-03-20T16:12:51.277Z,2.03
2023-03-20T16:15:21.252Z,1.83
2023-03-20T16:17:52.969Z,2.70
2023-03-20T16:20:21.643Z,6.37
2023-03-20T16:22:51.053Z,6.67
2023-03-20T16:25:20.657Z,9.17
2023-03-20T16:27:52.734Z,3.03
2023-03-20T16:30:26.966Z,2.53
2023-03-20T16:33:01.694Z,3.50
2023-03-20T16:35:38.408Z,4.77
2023-03-20T16:38:22.207Z,7.53
2023-03-20T16:40:53.972Z,4.63
2023-03-20T16:43:29.153Z,9.07
2023-03-20T16:46:04.304Z,16.37
2023-03-20T16:48:34.160Z,4.10
2023-03-20T16:51:07.564Z,6.57
2023-03-20T16:53:42.651Z,11.33
2023-03-20T16:56:14.734Z,8.43
2023-03-20T16:58:46.354Z,4.60
2023-03-20T17:01:19.790Z,4.30
2023-03-20T17:03:52.239Z,3.20
2023-03-20T17:06:45.844Z,9.20
2023-03-20T17:09:25.412Z,6.07
2023-03-20T17:12:03.282Z,5.53
2023-03-20T17:14:32.996Z,2.37
2023-03-20T17:17:01.088Z,4.20
2023-03-20T17:19:29.072Z,6.13
2023-03-20T17:21:57.686Z,7.20
2023-03-20T17:24:27.117Z,3.60
2023-03-20T17:26:57.934Z,4.70
2023-03-20T17:29:28.191Z,9.60
2023-03-20T17:32:00.708Z,5.40
2023-03-20T17:34:30.607Z,6.17
2023-03-20T17:37:01.914Z,10.10
2023-03-20T17:39:31.794Z,7.53
2023-03-20T17:42:01.474Z,5.50
2023-03-20T17:44:30.613Z,7.03
2023-03-20T17:47:01.214Z,5.40
2023-03-20T17:49:31.268Z,5.73
2023-03-20T17:52:00.844Z,3.33
2023-03-20T17:54:30.119Z,3.90
2023-03-20T17:56:58.626Z,2.93
2023-03-20T17:59:31.123Z,2.00
2023-03-20T18:02:01.672Z,1.17
2023-03-20T18:04:30.863Z,1.90
2023-03-20T18:06:59.737Z,4.50
2023-03-20T18:09:30.846Z,3.43
2023-03-20T18:11:59.293Z,8.60
2023-03-20T18:14:29.390Z,6.63
2023-03-20T18:16:58.894Z,5.00
2023-03-20T18:19:30.596Z,11.90
2023-03-20T18:21:59.138Z,8.03
2023-03-20T18:24:28.219Z,12.73
2023-03-20T18:26:59.053Z,21.93
2023-03-20T18:29:27.419Z,11.53
2023-03-20T18:31:55.726Z,5.50
2023-03-20T18:34:23.717Z,2.93
2023-03-20T18:36:54.254Z,2.27
2023-03-20T18:39:25.323Z,4.60
2023-03-20T18:41:53.963Z,6.43
2023-03-20T18:44:22.782Z,3.70
2023-03-20T18:46:51.647Z,1.70
2023-03-20T18:49:22.142Z,5.67
2023-03-20T18:51:53.528Z,1.70
2023-03-20T18:54:21.768Z,3.53
2023-03-20T18:56:52.557Z,3.90
2023-03-20T18:59:22.830Z,11.23
2023-03-20T19:01:53.145Z,9.00
2023-03-20T19:04:23.614Z,6.90
2023-03-20T19:06:53.088Z,4.10
2023-03-20T19:09:21.690Z,3.23
2023-03-20T19:11:49.854Z,4.30
2023-03-20T19:14:19.488Z,4.30
2023-03-20T19:16:48.144Z,1.70
2023-03-20T19:19:17.641Z,4.23
2023-03-20T19:21:46.299Z,6.83
2023-03-20T19:24:18.167Z,6.73
2023-03-20T19:26:46.566Z,4.60
2023-03-20T19:29:14.837Z,6.10
2023-03-20T19:31:43.585Z,2.93
2023-03-20T19:34:36.885Z,1.60
2023-03-20T19:37:00.360Z,3.20
2023-03-20T19:39:31.320Z,2.10
2023-03-20T19:42:15.613Z,3.13
2023-03-20T19:44:49.336Z,6.63
2023-03-20T19:47:18.681Z,6.03
2023-03-20T19:49:47.020Z,13.73
2023-03-20T19:52:28.005Z,4.40
2023-03-20T19:55:03.044Z,3.20
2023-03-20T19:57:32.262Z,7.80
2023-03-20T20:00:50.594Z,10.50
2023-03-20T20:02:49.099Z,1.87
2023-03-20T20:05:23.972Z,4.67
2023-03-20T20:08:24.218Z,14.70
2023-03-20T20:10:45.379Z,2.77
2023-03-20T20:13:19.211Z,2.73
2023-03-20T20:15:48.682Z,4.53
2023-03-20T20:18:18.579Z,3.60
2023-03-20T20:21:37.534Z,5.47
2023-03-20T20:23:39.091Z,3.90
2023-03-20T20:26:09.590Z,2.53
2023-03-20T20:28:37.710Z,14.00
2023-03-20T20:31:06.487Z,7.23
2023-03-20T20:33:36.762Z,4.80
2023-03-20T20:39:03.852Z,7.47
2023-03-20T20:41:33.633Z,1.90
2023-03-20T20:44:15.565Z,12.57
2023-03-20T20:46:44.752Z,2.47
2023-03-20T20:49:19.453Z,6.40
2023-03-20T20:51:48.769Z,8.00
2023-03-20T20:54:17.714Z,10.03
2023-03-20T20:56:47.551Z,2.10
2023-03-20T20:59:17.074Z,9.93
2023-03-20T21:01:45.954Z,5.90
2023-03-20T21:04:14.210Z,5.57
2023-03-20T21:09:31.534Z,4.63
2023-03-20T21:12:02.677Z,7.10
2023-03-20T21:14:31.266Z,3.63
2023-03-20T21:17:01.837Z,3.90
2023-03-20T21:19:32.514Z,7.13
2023-03-20T21:22:00.868Z,3.53
2023-03-20T21:24:33.826Z,2.37
2023-03-20T21:27:08.514Z,7.00
2023-03-20T21:29:36.767Z,4.47
2023-03-20T21:32:07.142Z,9.53
2023-03-20T21:34:38.371Z,8.37
2023-03-20T21:38:15.797Z,4.50
2023-03-20T21:39:59.326Z,3.90
2023-03-20T21:42:29.821Z,6.83
2023-03-20T21:45:56.096Z,1.60
2023-03-20T21:48:25.217Z,9.00
2023-03-20T21:51:02.886Z,3.10
2023-03-20T21:54:24.452Z,2.30
2023-03-20T21:56:57.236Z,6.30
2023-03-20T22:02:13.858Z,2.10
2023-03-20T22:05:34.557Z,1.53
2023-03-20T22:08:09.540Z,4.63
2023-03-20T22:14:10.225Z,2.53
2023-03-20T22:25:16.615Z,2.60
2023-03-20T22:28:00.798Z,8.03
2023-03-20T22:33:58.713Z,5.80
2023-03-20T22:47:08.904Z,5.13
2023-03-20T22:49:38.416Z,2.03
2023-03-20T22:52:20.009Z,7.10
2023-03-20T22:54:52.802Z,1.70
2023-03-20T22:57:20.820Z,2.03
2023-03-20T22:59:48.792Z,6.13
2023-03-20T23:02:16.794Z,5.33
2023-03-20T23:04:46.096Z,3.77
2023-03-20T23:07:14.107Z,7.40
2023-03-20T23:09:42.148Z,2.83
2023-03-20T23:12:10.787Z,7.20
2023-03-20T23:14:45.799Z,4.73
2023-03-20T23:17:14.394Z,3.30
2023-03-20T23:19:49.220Z,3.97
2023-03-20T23:22:21.582Z,9.73
2023-03-20T23:24:50.216Z,2.53
2023-03-20T23:27:20.129Z,4.10
2023-03-20T23:29:48.112Z,4.03
2023-03-20T23:32:16.547Z,1.90
2023-03-20T23:34:44.577Z,2.40
2023-03-20T23:37:12.654Z,2.23
2023-03-20T23:39:42.256Z,5.30
2023-03-20T23:42:27.651Z,2.40
2023-03-20T23:45:04.317Z,2.73
2023-03-20T23:47:44.334Z,2.60
2023-03-20T23:50:26.333Z,3.40
2023-03-20T23:53:06.349Z,3.07
2023-03-20T23:55:44.506Z,3.00
2023-03-20T23:58:13.705Z,1.77
